ASP weather

Alice Springs Airport
Alice Springs, Northern Territory, Australia

Public forecast

Using degrees Celsius for public forecast. Weather courtesy of forecast.io.

METAR (pilot weather report)

Retrieved 2018/11/16 02:30 UTC (13 minutes ago):

YBAS 160230Z AUTO 22009KT 9999 // OVC110 27/07 Q1019 RF00.0/000.0 PRESENT WEATHER SENSOR US

TAF (pilot weather forecast)

Forecast is more than 6 hours old.

Retrieved 2018/11/15 18:00 UTC (9 hours ago):

TAF YBAS 151731Z 1518/1618 12010KT CAVOK FM152300 10014KT CAVOK FM160400 15014KT CAVOK FM160600 18016G26KT CAVOK FM160900 17008KT CAVOK